sensor_id;sensor_type;location;lat;lon;timestamp;temperature;humidity
55008;DHT22;40902;45.116;21.296;2024-02-23T00:01:51;307.80;2304.00
55008;DHT22;40902;45.116;21.296;2024-02-23T00:04:17;307.80;2304.00
55008;DHT22;40902;45.116;21.296;2024-02-23T00:06:44;307.80;2304.00
55008;DHT22;40902;45.116;21.296;2024-02-23T00:09:10;307.70;2304.00
55008;DHT22;40902;45.116;21.296;2024-02-23T00:11:40;307.70;2304.00
55008;DHT22;40902;45.116;21.296;2024-02-23T00:14:12;307.70;2304.00
55008;DHT22;40902;45.116;21.296;2024-02-23T00:16:39;307.70;2304.00
55008;DHT22;40902;45.116;21.296;2024-02-23T00:19:07;307.60;2304.00
55008;DHT22;40902;45.116;21.296;2024-02-23T00:21:34;307.60;2304.00
55008;DHT22;40902;45.116;21.296;2024-02-23T00:23:59;307.60;2304.00
55008;DHT22;40902;45.116;21.296;2024-02-23T00:26:25;307.60;2304.00
55008;DHT22;40902;45.116;21.296;2024-02-23T00:28:53;307.60;2304.00
55008;DHT22;40902;45.116;21.296;2024-02-23T00:31:19;307.60;2304.00
55008;DHT22;40902;45.116;21.296;2024-02-23T00:33:44;307.60;2304.00
55008;DHT22;40902;45.116;21.296;2024-02-23T00:36:10;307.60;2304.00
55008;DHT22;40902;45.116;21.296;2024-02-23T00:38:36;307.60;2304.00
55008;DHT22;40902;45.116;21.296;2024-02-23T00:41:02;307.60;2304.00
55008;DHT22;40902;45.116;21.296;2024-02-23T00:43:28;307.60;2304.00
55008;DHT22;40902;45.116;21.296;2024-02-23T00:45:55;307.60;2304.00
55008;DHT22;40902;45.116;21.296;2024-02-23T00:48:21;307.50;2304.00
55008;DHT22;40902;45.116;21.296;2024-02-23T00:50:46;307.50;2304.00
55008;DHT22;40902;45.116;21.296;2024-02-23T00:53:12;307.50;2304.00
55008;DHT22;40902;45.116;21.296;2024-02-23T00:55:38;307.50;2304.00
55008;DHT22;40902;45.116;21.296;2024-02-23T00:58:04;307.50;2304.00
55008;DHT22;40902;45.116;21.296;2024-02-23T01:00:29;307.50;2304.00
55008;DHT22;40902;45.116;21.296;2024-02-23T01:02:55;307.60;2304.00
55008;DHT22;40902;45.116;21.296;2024-02-23T01:05:21;307.50;2304.00
55008;DHT22;40902;45.116;21.296;2024-02-23T01:07:46;307.50;2304.00
55008;DHT22;40902;45.116;21.296;2024-02-23T01:10:12;307.50;2304.00
55008;DHT22;40902;45.116;21.296;2024-02-23T01:12:38;307.50;2304.00
55008;DHT22;40902;45.116;21.296;2024-02-23T01:15:04;307.50;2304.00
55008;DHT22;40902;45.116;21.296;2024-02-23T01:17:30;307.50;2304.00
55008;DHT22;40902;45.116;21.296;2024-02-23T01:19:56;307.50;2304.00
55008;DHT22;40902;45.116;21.296;2024-02-23T01:22:22;307.50;2304.00
55008;DHT22;40902;45.116;21.296;2024-02-23T01:24:47;307.40;2304.00
55008;DHT22;40902;45.116;21.296;2024-02-23T01:27:13;307.50;2304.00
55008;DHT22;40902;45.116;21.296;2024-02-23T01:29:39;307.50;2304.00
55008;DHT22;40902;45.116;21.296;2024-02-23T01:32:05;307.40;2304.00
55008;DHT22;40902;45.116;21.296;2024-02-23T01:34:31;307.40;2304.00
55008;DHT22;40902;45.116;21.296;2024-02-23T01:36:56;307.50;2304.00
55008;DHT22;40902;45.116;21.296;2024-02-23T01:39:22;307.50;2304.00
55008;DHT22;40902;45.116;21.296;2024-02-23T01:41:48;307.40;2304.00
55008;DHT22;40902;45.116;21.296;2024-02-23T01:44:14;307.40;2304.00
55008;DHT22;40902;45.116;21.296;2024-02-23T01:46:41;307.40;2304.00
55008;DHT22;40902;45.116;21.296;2024-02-23T01:49:08;307.50;2304.00
55008;DHT22;40902;45.116;21.296;2024-02-23T01:51:34;307.50;2304.00
55008;DHT22;40902;45.116;21.296;2024-02-23T01:54:01;307.50;2304.00
55008;DHT22;40902;45.116;21.296;2024-02-23T01:56:27;307.50;2304.00
55008;DHT22;40902;45.116;21.296;2024-02-23T01:58:54;307.50;2304.00
55008;DHT22;40902;45.116;21.296;2024-02-23T02:01:20;307.50;2304.00
55008;DHT22;40902;45.116;21.296;2024-02-23T02:03:46;307.60;2304.00
55008;DHT22;40902;45.116;21.296;2024-02-23T02:06:12;307.60;2304.00
55008;DHT22;40902;45.116;21.296;2024-02-23T02:08:38;307.60;2304.00
55008;DHT22;40902;45.116;21.296;2024-02-23T02:11:04;307.60;2304.00
55008;DHT22;40902;45.116;21.296;2024-02-23T02:13:30;307.60;2304.00
55008;DHT22;40902;45.116;21.296;2024-02-23T02:15:59;307.60;2304.00
55008;DHT22;40902;45.116;21.296;2024-02-23T02:18:26;307.60;2304.00
55008;DHT22;40902;45.116;21.296;2024-02-23T02:20:54;307.60;2304.00
55008;DHT22;40902;45.116;21.296;2024-02-23T02:23:20;307.60;2304.00
55008;DHT22;40902;45.116;21.296;2024-02-23T02:25:51;307.60;2304.00
55008;DHT22;40902;45.116;21.296;2024-02-23T02:28:17;307.70;2304.00
55008;DHT22;40902;45.116;21.296;2024-02-23T02:30:43;307.70;2304.00
55008;DHT22;40902;45.116;21.296;2024-02-23T02:33:09;307.70;2304.00
55008;DHT22;40902;45.116;21.296;2024-02-23T02:35:34;307.60;2304.00
55008;DHT22;40902;45.116;21.296;2024-02-23T02:38:00;307.60;2304.00
55008;DHT22;40902;45.116;21.296;2024-02-23T02:40:26;307.60;2304.00
55008;DHT22;40902;45.116;21.296;2024-02-23T02:42:51;307.70;2304.00
55008;DHT22;40902;45.116;21.296;2024-02-23T02:45:17;307.60;2278.40
55008;DHT22;40902;45.116;21.296;2024-02-23T02:47:43;307.60;2278.40
55008;DHT22;40902;45.116;21.296;2024-02-23T02:50:09;307.60;2278.40
55008;DHT22;40902;45.116;21.296;2024-02-23T02:52:35;307.60;2278.40
55008;DHT22;40902;45.116;21.296;2024-02-23T02:55:00;307.60;2278.40
55008;DHT22;40902;45.116;21.296;2024-02-23T02:57:26;307.60;2278.40
55008;DHT22;40902;45.116;21.296;2024-02-23T02:59:52;307.60;2304.00
55008;DHT22;40902;45.116;21.296;2024-02-23T03:02:18;307.60;2278.40
55008;DHT22;40902;45.116;21.296;2024-02-23T03:04:50;307.60;2278.40
55008;DHT22;40902;45.116;21.296;2024-02-23T03:07:17;307.60;2252.80
55008;DHT22;40902;45.116;21.296;2024-02-23T03:09:43;307.60;2278.40
55008;DHT22;40902;45.116;21.296;2024-02-23T03:12:10;307.60;2278.40
55008;DHT22;40902;45.116;21.296;2024-02-23T03:14:36;307.60;2278.40
55008;DHT22;40902;45.116;21.296;2024-02-23T03:17:07;307.60;2278.40
55008;DHT22;40902;45.116;21.296;2024-02-23T03:19:33;307.60;2252.80
55008;DHT22;40902;45.116;21.296;2024-02-23T03:21:59;307.70;2252.80
55008;DHT22;40902;45.116;21.296;2024-02-23T03:24:24;307.70;2252.80
55008;DHT22;40902;45.116;21.296;2024-02-23T03:26:50;307.70;2252.80
55008;DHT22;40902;45.116;21.296;2024-02-23T03:29:16;307.60;2252.80
55008;DHT22;40902;45.116;21.296;2024-02-23T03:31:42;307.70;2252.80
55008;DHT22;40902;45.116;21.296;2024-02-23T03:34:08;307.60;2252.80
55008;DHT22;40902;45.116;21.296;2024-02-23T03:36:34;307.60;2252.80
55008;DHT22;40902;45.116;21.296;2024-02-23T03:39:00;307.60;2252.80
55008;DHT22;40902;45.116;21.296;2024-02-23T03:41:26;307.60;2252.80
55008;DHT22;40902;45.116;21.296;2024-02-23T03:43:52;307.70;2252.80
55008;DHT22;40902;45.116;21.296;2024-02-23T03:46:18;307.70;2252.80
55008;DHT22;40902;45.116;21.296;2024-02-23T03:48:45;307.70;2252.80
55008;DHT22;40902;45.116;21.296;2024-02-23T03:51:11;307.70;2252.80
55008;DHT22;40902;45.116;21.296;2024-02-23T03:53:36;307.70;2252.80
55008;DHT22;40902;45.116;21.296;2024-02-23T03:56:02;307.70;2252.80
55008;DHT22;40902;45.116;21.296;2024-02-23T03:58:28;307.70;2227.20
55008;DHT22;40902;45.116;21.296;2024-02-23T04:00:54;307.70;2227.20
55008;DHT22;40902;45.116;21.296;2024-02-23T04:03:20;307.60;2227.20
55008;DHT22;40902;45.116;21.296;2024-02-23T04:05:46;307.60;2227.20
55008;DHT22;40902;45.116;21.296;2024-02-23T04:08:11;307.60;2227.20
55008;DHT22;40902;45.116;21.296;2024-02-23T04:10:37;307.60;2252.80
55008;DHT22;40902;45.116;21.296;2024-02-23T04:13:03;307.60;2227.20
55008;DHT22;40902;45.116;21.296;2024-02-23T04:15:29;307.70;2252.80
55008;DHT22;40902;45.116;21.296;2024-02-23T04:17:54;307.70;2252.80
55008;DHT22;40902;45.116;21.296;2024-02-23T04:20:20;307.70;2252.80
55008;DHT22;40902;45.116;21.296;2024-02-23T04:22:46;307.70;2252.80
55008;DHT22;40902;45.116;21.296;2024-02-23T04:25:12;307.70;2252.80
55008;DHT22;40902;45.116;21.296;2024-02-23T04:27:37;307.60;2227.20
55008;DHT22;40902;45.116;21.296;2024-02-23T04:30:04;307.60;2227.20
55008;DHT22;40902;45.116;21.296;2024-02-23T04:32:30;307.60;2227.20
55008;DHT22;40902;45.116;21.296;2024-02-23T04:34:56;307.70;2227.20
55008;DHT22;40902;45.116;21.296;2024-02-23T04:37:22;307.60;2227.20
55008;DHT22;40902;45.116;21.296;2024-02-23T04:39:48;307.60;2227.20
55008;DHT22;40902;45.116;21.296;2024-02-23T04:42:14;307.60;2252.80
55008;DHT22;40902;45.116;21.296;2024-02-23T04:44:41;307.60;2252.80
55008;DHT22;40902;45.116;21.296;2024-02-23T04:47:08;307.60;2252.80
55008;DHT22;40902;45.116;21.296;2024-02-23T04:49:34;307.60;2252.80
55008;DHT22;40902;45.116;21.296;2024-02-23T04:52:00;307.60;2252.80
55008;DHT22;40902;45.116;21.296;2024-02-23T04:54:26;307.60;2252.80
55008;DHT22;40902;45.116;21.296;2024-02-23T04:56:52;307.60;2252.80
55008;DHT22;40902;45.116;21.296;2024-02-23T04:59:18;307.60;2252.80
55008;DHT22;40902;45.116;21.296;2024-02-23T05:01:44;307.60;2252.80
55008;DHT22;40902;45.116;21.296;2024-02-23T05:04:09;307.60;2252.80
55008;DHT22;40902;45.116;21.296;2024-02-23T05:06:35;307.60;2252.80
55008;DHT22;40902;45.116;21.296;2024-02-23T05:09:01;307.60;2252.80
55008;DHT22;40902;45.116;21.296;2024-02-23T05:11:28;307.60;2252.80
55008;DHT22;40902;45.116;21.296;2024-02-23T05:13:54;307.60;2227.20
55008;DHT22;40902;45.116;21.296;2024-02-23T05:16:20;307.60;2227.20
55008;DHT22;40902;45.116;21.296;2024-02-23T05:18:45;307.60;2252.80
55008;DHT22;40902;45.116;21.296;2024-02-23T05:21:14;307.60;2252.80
55008;DHT22;40902;45.116;21.296;2024-02-23T05:23:40;307.60;2252.80
55008;DHT22;40902;45.116;21.296;2024-02-23T05:26:06;307.60;2252.80
55008;DHT22;40902;45.116;21.296;2024-02-23T05:28:32;307.60;2252.80
55008;DHT22;40902;45.116;21.296;2024-02-23T05:30:58;307.60;2227.20
55008;DHT22;40902;45.116;21.296;2024-02-23T05:33:24;307.70;2227.20
55008;DHT22;40902;45.116;21.296;2024-02-23T05:35:50;307.70;2252.80
55008;DHT22;40902;45.116;21.296;2024-02-23T05:38:16;307.70;2227.20
55008;DHT22;40902;45.116;21.296;2024-02-23T05:40:42;307.90;2227.20
55008;DHT22;40902;45.116;21.296;2024-02-23T05:43:09;307.90;2227.20
55008;DHT22;40902;45.116;21.296;2024-02-23T05:45:34;308.00;2201.60
55008;DHT22;40902;45.116;21.296;2024-02-23T05:48:00;308.10;2201.60
55008;DHT22;40902;45.116;21.296;2024-02-23T05:50:26;308.10;2201.60
55008;DHT22;40902;45.116;21.296;2024-02-23T05:52:52;332.80;2227.20
55008;DHT22;40902;45.116;21.296;2024-02-23T05:55:19;332.90;2227.20
55008;DHT22;40902;45.116;21.296;2024-02-23T05:57:44;333.00;2201.60
55008;DHT22;40902;45.116;21.296;2024-02-23T06:00:10;333.00;2201.60
55008;DHT22;40902;45.116;21.296;2024-02-23T06:02:37;333.00;2201.60
55008;DHT22;40902;45.116;21.296;2024-02-23T06:05:04;333.10;2201.60
55008;DHT22;40902;45.116;21.296;2024-02-23T06:07:33;333.10;2201.60
55008;DHT22;40902;45.116;21.296;2024-02-23T06:10:00;333.10;2201.60
55008;DHT22;40902;45.116;21.296;2024-02-23T06:12:26;333.10;2176.00
55008;DHT22;40902;45.116;21.296;2024-02-23T06:14:52;333.10;2176.00
55008;DHT22;40902;45.116;21.296;2024-02-23T06:17:18;333.20;2176.00
55008;DHT22;40902;45.116;21.296;2024-02-23T06:19:44;333.20;2176.00
55008;DHT22;40902;45.116;21.296;2024-02-23T06:22:10;333.30;2176.00
55008;DHT22;40902;45.116;21.296;2024-02-23T06:24:37;333.30;2176.00
55008;DHT22;40902;45.116;21.296;2024-02-23T06:27:03;333.30;2176.00
55008;DHT22;40902;45.116;21.296;2024-02-23T06:29:29;333.30;2150.40
55008;DHT22;40902;45.116;21.296;2024-02-23T06:31:55;333.30;2176.00
55008;DHT22;40902;45.116;21.296;2024-02-23T06:34:21;333.30;2176.00
55008;DHT22;40902;45.116;21.296;2024-02-23T06:36:47;333.40;2176.00
55008;DHT22;40902;45.116;21.296;2024-02-23T06:39:13;333.30;2176.00
55008;DHT22;40902;45.116;21.296;2024-02-23T06:41:39;333.30;2176.00
55008;DHT22;40902;45.116;21.296;2024-02-23T06:44:05;333.20;2176.00
55008;DHT22;40902;45.116;21.296;2024-02-23T06:46:31;333.20;2176.00
55008;DHT22;40902;45.116;21.296;2024-02-23T06:48:57;333.20;2176.00
55008;DHT22;40902;45.116;21.296;2024-02-23T06:51:23;333.30;2201.60
55008;DHT22;40902;45.116;21.296;2024-02-23T06:53:48;333.30;2201.60
55008;DHT22;40902;45.116;21.296;2024-02-23T06:56:14;333.20;2201.60
55008;DHT22;40902;45.116;21.296;2024-02-23T06:58:40;333.20;2201.60
55008;DHT22;40902;45.116;21.296;2024-02-23T07:01:06;333.20;2176.00
55008;DHT22;40902;45.116;21.296;2024-02-23T07:03:35;333.20;2201.60
55008;DHT22;40902;45.116;21.296;2024-02-23T07:06:02;333.20;2201.60
55008;DHT22;40902;45.116;21.296;2024-02-23T07:08:28;333.20;2201.60
55008;DHT22;40902;45.116;21.296;2024-02-23T07:10:55;333.20;2227.20
55008;DHT22;40902;45.116;21.296;2024-02-23T07:13:21;333.10;2227.20
55008;DHT22;40902;45.116;21.296;2024-02-23T07:15:47;333.10;2227.20
55008;DHT22;40902;45.116;21.296;2024-02-23T07:18:13;333.10;2227.20
55008;DHT22;40902;45.116;21.296;2024-02-23T07:20:38;333.10;2227.20
55008;DHT22;40902;45.116;21.296;2024-02-23T07:23:04;333.10;2227.20
55008;DHT22;40902;45.116;21.296;2024-02-23T07:25:30;333.10;2201.60
55008;DHT22;40902;45.116;21.296;2024-02-23T07:27:56;333.20;2201.60
55008;DHT22;40902;45.116;21.296;2024-02-23T07:30:22;333.20;2201.60
55008;DHT22;40902;45.116;21.296;2024-02-23T07:32:48;333.20;2227.20
55008;DHT22;40902;45.116;21.296;2024-02-23T07:35:14;333.20;2227.20
55008;DHT22;40902;45.116;21.296;2024-02-23T07:37:40;333.20;2227.20
55008;DHT22;40902;45.116;21.296;2024-02-23T07:40:06;333.20;2227.20
55008;DHT22;40902;45.116;21.296;2024-02-23T07:42:33;333.20;2227.20
55008;DHT22;40902;45.116;21.296;2024-02-23T07:45:06;333.20;2227.20
55008;DHT22;40902;45.116;21.296;2024-02-23T07:47:32;333.30;2227.20
55008;DHT22;40902;45.116;21.296;2024-02-23T07:49:58;333.30;2227.20
55008;DHT22;40902;45.116;21.296;2024-02-23T07:52:24;333.30;2201.60
55008;DHT22;40902;45.116;21.296;2024-02-23T07:54:52;333.40;2201.60
55008;DHT22;40902;45.116;21.296;2024-02-23T07:57:20;333.50;2201.60
55008;DHT22;40902;45.116;21.296;2024-02-23T07:59:47;333.50;2227.20
55008;DHT22;40902;45.116;21.296;2024-02-23T08:02:14;333.70;2201.60
55008;DHT22;40902;45.116;21.296;2024-02-23T08:04:40;358.40;2201.60
55008;DHT22;40902;45.116;21.296;2024-02-23T08:07:06;358.50;2201.60
55008;DHT22;40902;45.116;21.296;2024-02-23T08:09:31;358.50;2201.60
55008;DHT22;40902;45.116;21.296;2024-02-23T08:11:58;358.50;2201.60
55008;DHT22;40902;45.116;21.296;2024-02-23T08:14:23;358.60;2176.00
55008;DHT22;40902;45.116;21.296;2024-02-23T08:16:49;358.70;2201.60
55008;DHT22;40902;45.116;21.296;2024-02-23T08:19:15;358.60;2176.00
55008;DHT22;40902;45.116;21.296;2024-02-23T08:21:41;358.70;2176.00
55008;DHT22;40902;45.116;21.296;2024-02-23T08:24:09;358.80;2176.00
55008;DHT22;40902;45.116;21.296;2024-02-23T08:26:35;358.80;2201.60
55008;DHT22;40902;45.116;21.296;2024-02-23T08:29:01;358.80;2201.60
55008;DHT22;40902;45.116;21.296;2024-02-23T08:31:26;358.90;2201.60
55008;DHT22;40902;45.116;21.296;2024-02-23T08:33:52;359.00;2176.00
55008;DHT22;40902;45.116;21.296;2024-02-23T08:36:18;359.00;2201.60
55008;DHT22;40902;45.116;21.296;2024-02-23T08:38:44;359.30;2201.60
55008;DHT22;40902;45.116;21.296;2024-02-23T08:43:35;384.20;2176.00
55008;DHT22;40902;45.116;21.296;2024-02-23T08:46:01;384.20;2176.00
55008;DHT22;40902;45.116;21.296;2024-02-23T08:50:53;384.50;2176.00
55008;DHT22;40902;45.116;21.296;2024-02-23T08:53:20;384.30;2176.00
55008;DHT22;40902;45.116;21.296;2024-02-23T08:55:45;384.20;2176.00
55008;DHT22;40902;45.116;21.296;2024-02-23T08:58:11;384.30;2176.00
55008;DHT22;40902;45.116;21.296;2024-02-23T09:00:37;384.20;2176.00
55008;DHT22;40902;45.116;21.296;2024-02-23T09:03:03;384.40;2176.00
55008;DHT22;40902;45.116;21.296;2024-02-23T09:05:29;384.40;2176.00
55008;DHT22;40902;45.116;21.296;2024-02-23T09:07:55;384.40;2176.00
55008;DHT22;40902;45.116;21.296;2024-02-23T09:10:21;384.40;2176.00
55008;DHT22;40902;45.116;21.296;2024-02-23T09:12:48;384.40;2176.00
55008;DHT22;40902;45.116;21.296;2024-02-23T09:15:13;384.50;2176.00
55008;DHT22;40902;45.116;21.296;2024-02-23T09:17:42;384.60;2176.00
55008;DHT22;40902;45.116;21.296;2024-02-23T09:20:09;384.60;2176.00
55008;DHT22;40902;45.116;21.296;2024-02-23T09:22:34;384.70;2176.00
55008;DHT22;40902;45.116;21.296;2024-02-23T09:25:02;384.70;2150.40
55008;DHT22;40902;45.116;21.296;2024-02-23T09:27:28;384.70;2150.40
55008;DHT22;40902;45.116;21.296;2024-02-23T09:29:54;384.70;2150.40
55008;DHT22;40902;45.116;21.296;2024-02-23T09:32:19;384.70;2176.00
55008;DHT22;40902;45.116;21.296;2024-02-23T09:34:45;384.70;2150.40
55008;DHT22;40902;45.116;21.296;2024-02-23T09:37:11;384.70;2150.40
55008;DHT22;40902;45.116;21.296;2024-02-23T09:39:37;384.70;2176.00
55008;DHT22;40902;45.116;21.296;2024-02-23T09:42:02;384.80;2176.00
55008;DHT22;40902;45.116;21.296;2024-02-23T09:44:33;384.80;2176.00
55008;DHT22;40902;45.116;21.296;2024-02-23T09:47:01;384.70;2150.40
55008;DHT22;40902;45.116;21.296;2024-02-23T09:49:38;384.80;2150.40
55008;DHT22;40902;45.116;21.296;2024-02-23T09:52:07;384.70;2176.00
55008;DHT22;40902;45.116;21.296;2024-02-23T09:54:33;384.80;2150.40
55008;DHT22;40902;45.116;21.296;2024-02-23T09:57:00;384.80;2176.00
55008;DHT22;40902;45.116;21.296;2024-02-23T09:59:27;384.80;2150.40
55008;DHT22;40902;45.116;21.296;2024-02-23T10:01:53;384.80;2176.00
55008;DHT22;40902;45.116;21.296;2024-02-23T10:04:19;384.90;2176.00
55008;DHT22;40902;45.116;21.296;2024-02-23T10:06:45;384.90;2176.00
55008;DHT22;40902;45.116;21.296;2024-02-23T10:09:11;409.60;2227.20
55008;DHT22;40902;45.116;21.296;2024-02-23T10:11:38;409.70;2227.20
55008;DHT22;40902;45.116;21.296;2024-02-23T10:14:04;409.90;2227.20
55008;DHT22;40902;45.116;21.296;2024-02-23T10:16:30;409.80;2201.60
55008;DHT22;40902;45.116;21.296;2024-02-23T10:18:57;410.00;2201.60
55008;DHT22;40902;45.116;21.296;2024-02-23T10:21:23;410.10;2201.60
55008;DHT22;40902;45.116;21.296;2024-02-23T10:23:50;410.40;2201.60
55008;DHT22;40902;45.116;21.296;2024-02-23T10:26:17;410.40;2201.60
55008;DHT22;40902;45.116;21.296;2024-02-23T10:28:45;435.40;2201.60
55008;DHT22;40902;45.116;21.296;2024-02-23T10:31:14;435.30;2176.00
55008;DHT22;40902;45.116;21.296;2024-02-23T10:33:39;435.20;2176.00
55008;DHT22;40902;45.116;21.296;2024-02-23T10:36:07;435.30;2176.00
55008;DHT22;40902;45.116;21.296;2024-02-23T10:38:38;435.30;2150.40
55008;DHT22;40902;45.116;21.296;2024-02-23T10:41:06;435.40;2150.40
55008;DHT22;40902;45.116;21.296;2024-02-23T10:43:39;435.60;2124.80
55008;DHT22;40902;45.116;21.296;2024-02-23T10:46:07;435.80;2099.20
55008;DHT22;40902;45.116;21.296;2024-02-23T10:48:43;435.60;2099.20
55008;DHT22;40902;45.116;21.296;2024-02-23T10:51:10;435.70;2099.20
55008;DHT22;40902;45.116;21.296;2024-02-23T10:53:39;435.70;2073.60
55008;DHT22;40902;45.116;21.296;2024-02-23T10:56:05;435.70;2073.60
55008;DHT22;40902;45.116;21.296;2024-02-23T10:58:32;435.70;2073.60
55008;DHT22;40902;45.116;21.296;2024-02-23T11:01:02;435.70;2073.60
55008;DHT22;40902;45.116;21.296;2024-02-23T11:03:32;435.60;2073.60
55008;DHT22;40902;45.116;21.296;2024-02-23T11:05:59;435.60;2073.60
55008;DHT22;40902;45.116;21.296;2024-02-23T11:08:32;435.60;2073.60
55008;DHT22;40902;45.116;21.296;2024-02-23T11:11:07;435.60;2073.60
55008;DHT22;40902;45.116;21.296;2024-02-23T11:16:03;435.40;2073.60
55008;DHT22;40902;45.116;21.296;2024-02-23T11:18:30;435.50;2073.60
55008;DHT22;40902;45.116;21.296;2024-02-23T11:21:03;435.40;2073.60
55008;DHT22;40902;45.116;21.296;2024-02-23T11:23:49;435.40;2073.60
55008;DHT22;40902;45.116;21.296;2024-02-23T11:26:18;435.40;2099.20
55008;DHT22;40902;45.116;21.296;2024-02-23T11:28:48;435.40;2099.20
55008;DHT22;40902;45.116;21.296;2024-02-23T11:31:25;435.50;2099.20
55008;DHT22;40902;45.116;21.296;2024-02-23T11:33:53;435.50;2099.20
55008;DHT22;40902;45.116;21.296;2024-02-23T11:36:35;435.50;2099.20
55008;DHT22;40902;45.116;21.296;2024-02-23T11:39:01;435.60;2099.20
55008;DHT22;40902;45.116;21.296;2024-02-23T11:41:28;435.60;2099.20
55008;DHT22;40902;45.116;21.296;2024-02-23T11:43:55;435.60;2099.20
55008;DHT22;40902;45.116;21.296;2024-02-23T11:46:22;435.60;2099.20
55008;DHT22;40902;45.116;21.296;2024-02-23T11:48:49;435.70;2099.20
55008;DHT22;40902;45.116;21.296;2024-02-23T11:51:21;435.80;2099.20
55008;DHT22;40902;45.116;21.296;2024-02-23T11:53:49;435.80;2099.20
55008;DHT22;40902;45.116;21.296;2024-02-23T11:56:14;436.00;2099.20
55008;DHT22;40902;45.116;21.296;2024-02-23T11:58:41;460.80;2124.80
55008;DHT22;40902;45.116;21.296;2024-02-23T12:01:07;461.00;2099.20
55008;DHT22;40902;45.116;21.296;2024-02-23T12:03:33;460.80;2099.20
55008;DHT22;40902;45.116;21.296;2024-02-23T12:06:00;436.10;2073.60
55008;DHT22;40902;45.116;21.296;2024-02-23T12:08:27;460.80;2099.20
55008;DHT22;40902;45.116;21.296;2024-02-23T12:10:56;460.80;2099.20
55008;DHT22;40902;45.116;21.296;2024-02-23T12:13:23;460.90;2099.20
55008;DHT22;40902;45.116;21.296;2024-02-23T12:50:18;486.50;2048.00
55008;DHT22;40902;45.116;21.296;2024-02-23T12:52:44;461.70;2022.40
55008;DHT22;40902;45.116;21.296;2024-02-23T12:55:12;486.60;2022.40
55008;DHT22;40902;45.116;21.296;2024-02-23T12:57:37;486.50;2022.40
55008;DHT22;40902;45.116;21.296;2024-02-23T13:00:04;486.40;2022.40
55008;DHT22;40902;45.116;21.296;2024-02-23T13:02:30;486.40;2022.40
55008;DHT22;40902;45.116;21.296;2024-02-23T13:04:56;486.40;2022.40
55008;DHT22;40902;45.116;21.296;2024-02-23T13:07:22;486.40;2022.40
55008;DHT22;40902;45.116;21.296;2024-02-23T13:09:48;486.40;2048.00
55008;DHT22;40902;45.116;21.296;2024-02-23T15:43:55;461.10;2099.20
55008;DHT22;40902;45.116;21.296;2024-02-23T15:46:21;436.10;2073.60
55008;DHT22;40902;45.116;21.296;2024-02-23T15:48:47;436.00;2073.60
55008;DHT22;40902;45.116;21.296;2024-02-23T15:51:13;436.00;2073.60
55008;DHT22;40902;45.116;21.296;2024-02-23T15:53:39;436.00;2073.60
55008;DHT22;40902;45.116;21.296;2024-02-23T15:56:05;435.90;2073.60
55008;DHT22;40902;45.116;21.296;2024-02-23T15:58:31;435.90;2073.60
55008;DHT22;40902;45.116;21.296;2024-02-23T16:00:57;435.80;2073.60
55008;DHT22;40902;45.116;21.296;2024-02-23T16:03:23;435.70;2099.20
55008;DHT22;40902;45.116;21.296;2024-02-23T16:05:48;435.70;2099.20
55008;DHT22;40902;45.116;21.296;2024-02-23T16:08:14;435.70;2099.20
55008;DHT22;40902;45.116;21.296;2024-02-23T16:10:40;435.60;2124.80
55008;DHT22;40902;45.116;21.296;2024-02-23T16:13:06;435.60;2124.80
55008;DHT22;40902;45.116;21.296;2024-02-23T16:15:33;435.70;2150.40
55008;DHT22;40902;45.116;21.296;2024-02-23T16:17:59;435.50;2124.80
55008;DHT22;40902;45.116;21.296;2024-02-23T16:20:25;435.40;2124.80
55008;DHT22;40902;45.116;21.296;2024-02-23T16:22:54;435.40;2124.80
55008;DHT22;40902;45.116;21.296;2024-02-23T16:25:19;435.40;2124.80
55008;DHT22;40902;45.116;21.296;2024-02-23T16:27:48;435.40;2124.80
55008;DHT22;40902;45.116;21.296;2024-02-23T16:30:13;435.30;2150.40
55008;DHT22;40902;45.116;21.296;2024-02-23T16:32:39;435.30;2150.40
55008;DHT22;40902;45.116;21.296;2024-02-23T16:35:05;435.20;2150.40
55008;DHT22;40902;45.116;21.296;2024-02-23T16:37:31;435.40;2176.00
55008;DHT22;40902;45.116;21.296;2024-02-23T16:39:58;435.20;2176.00
55008;DHT22;40902;45.116;21.296;2024-02-23T17:45:47;410.50;2124.80
55008;DHT22;40902;45.116;21.296;2024-02-23T17:48:13;410.40;2124.80
55008;DHT22;40902;45.116;21.296;2024-02-23T17:50:38;410.10;2150.40
55008;DHT22;40902;45.116;21.296;2024-02-23T17:53:04;410.10;2176.00
55008;DHT22;40902;45.116;21.296;2024-02-23T17:55:30;410.00;2150.40
55008;DHT22;40902;45.116;21.296;2024-02-23T17:57:55;409.80;2150.40
55008;DHT22;40902;45.116;21.296;2024-02-23T18:00:21;409.90;2150.40
55008;DHT22;40902;45.116;21.296;2024-02-23T18:02:47;409.70;2150.40
55008;DHT22;40902;45.116;21.296;2024-02-23T18:05:13;409.70;2176.00
55008;DHT22;40902;45.116;21.296;2024-02-23T18:07:38;409.70;2176.00
55008;DHT22;40902;45.116;21.296;2024-02-23T18:10:05;409.60;2176.00
55008;DHT22;40902;45.116;21.296;2024-02-23T18:12:32;384.90;2150.40
55008;DHT22;40902;45.116;21.296;2024-02-23T18:14:59;384.90;2150.40
55008;DHT22;40902;45.116;21.296;2024-02-23T18:17:25;384.90;2176.00
55008;DHT22;40902;45.116;21.296;2024-02-23T18:19:50;384.90;2150.40
55008;DHT22;40902;45.116;21.296;2024-02-23T18:22:16;384.80;2176.00
55008;DHT22;40902;45.116;21.296;2024-02-23T18:24:42;384.80;2176.00
55008;DHT22;40902;45.116;21.296;2024-02-23T18:27:08;384.70;2150.40
55008;DHT22;40902;45.116;21.296;2024-02-23T18:29:34;384.70;2150.40
55008;DHT22;40902;45.116;21.296;2024-02-23T18:32:00;384.70;2176.00
55008;DHT22;40902;45.116;21.296;2024-02-23T18:34:26;384.70;2150.40
55008;DHT22;40902;45.116;21.296;2024-02-23T18:36:52;384.70;2150.40
55008;DHT22;40902;45.116;21.296;2024-02-23T18:39:17;384.70;2150.40
55008;DHT22;40902;45.116;21.296;2024-02-23T18:41:43;384.70;2150.40
55008;DHT22;40902;45.116;21.296;2024-02-23T18:44:11;384.70;2150.40
55008;DHT22;40902;45.116;21.296;2024-02-23T18:46:39;384.70;2150.40
55008;DHT22;40902;45.116;21.296;2024-02-23T18:49:05;384.70;2124.80